Wausau, FL

12:06 AM CDT on August 26, 2016 (GMT -0500)
APRSWXNET | | Change Station

Elev 131 ft 30.74 °N, 85.59 °W | Updated 39 minutes ago

Clear
Clear
72 °F
Feels Like 72 °F
N
0
Wind Variable Wind from ESE
Gusts 0.0 mph

Today
High -- | Low -- °F
--% Chance of Precip.
Yesterday
High -- | Low -- °F
Precip. -- in
Pressure 29.95 in
Visibility 10.0 miles
Clouds Clear
Dew Point 71 °F
Humidity 96%
Rainfall in
Snow Depth Not available.
6:15 AM 7:11 PM
Last Quarter, 38% visible
METAR K1J0 260358Z AUTO 00000KT 10SM CLR 24/23 A3008 RMK AO2 SLP142 T02390228
Pressure 29.95 in
Visibility 10.0 miles
Clouds Clear
Dew Point 71 °F
Humidity 96%
Rainfall in
Snow Depth Not available.
6:15 AM 7:11 PM
Last Quarter, 38% visible
METAR K1J0 260358Z AUTO 00000KT 10SM CLR 24/23 A3008 RMK AO2 SLP142 T02390228
A tropical disturbance pushing toward the Bahamas, is expected to develop into a tropical depression or storm, and will likely target Florida and the Gulf Coast this weekend into next week.

Right now, the disturbance remains a broad area of low pressure pushing through the Dominican Republic and Haiti, headed toward the southeast Bahamas. Rainfall totals over 3 inches (with locally higher amounts) are expected in HispaƱiola, particularly over elevated terrain.

10-Day Weather Forecast

Almanac

Astronomy

Aug. 26, 2016 Rise Set
Actual Time
Civil Twilight
Nautical Twilight
Astronomical Twilight
Moon
Length of Visible Light
Length of Day
Tomorrow will be .
, % of the Moon is Illuminated

Today's Extremes

State Highs State Lows

Community

WunderPhotos

Upload Photos

1,935,057 photos uploaded!

WunderBlog® & News

Nearby

Air Quality

  Air Quality AQ Index Pollutant
Not available.

Snow Depth

Station Depth Elevation

Earthquake Activity

City Distance Mag. Time & Date
Minimum magnitude displayed is 2.5.

Coastal Water Temperatures

Place Temperature

Stations

Nearby Weather Stations

Station Location Temp. Windchill Dew Point Humidity Wind Precip. Elev Updated Type
                   

Watches & Warnings

There are currently no watches in effect.